sensor_id;sensor_type;location;lat;lon;timestamp;P1;durP1;ratioP1;P2;durP2;ratioP2
9563;SDS011;4820;50.870;4.702;2023-05-10T00:01:52;7.90;;;5.88;;
9563;SDS011;4820;50.870;4.702;2023-05-10T00:04:18;7.80;;;5.78;;
9563;SDS011;4820;50.870;4.702;2023-05-10T00:06:43;7.40;;;6.18;;
9563;SDS011;4820;50.870;4.702;2023-05-10T00:09:09;7.10;;;5.80;;
9563;SDS011;4820;50.870;4.702;2023-05-10T00:11:35;8.63;;;5.95;;
9563;SDS011;4820;50.870;4.702;2023-05-10T00:14:01;8.60;;;5.93;;
9563;SDS011;4820;50.870;4.702;2023-05-10T00:16:26;7.50;;;6.25;;
9563;SDS011;4820;50.870;4.702;2023-05-10T00:18:52;9.25;;;6.78;;
9563;SDS011;4820;50.870;4.702;2023-05-10T00:21:18;10.45;;;6.72;;
9563;SDS011;4820;50.870;4.702;2023-05-10T00:23:44;8.88;;;6.63;;
9563;SDS011;4820;50.870;4.702;2023-05-10T00:26:10;11.00;;;6.28;;
9563;SDS011;4820;50.870;4.702;2023-05-10T00:28:35;8.45;;;6.45;;
9563;SDS011;4820;50.870;4.702;2023-05-10T00:31:01;10.35;;;6.70;;
9563;SDS011;4820;50.870;4.702;2023-05-10T00:33:27;9.82;;;6.72;;
9563;SDS011;4820;50.870;4.702;2023-05-10T00:35:53;8.25;;;6.53;;
9563;SDS011;4820;50.870;4.702;2023-05-10T00:38:19;9.32;;;7.45;;
9563;SDS011;4820;50.870;4.702;2023-05-10T00:40:44;8.98;;;6.80;;
9563;SDS011;4820;50.870;4.702;2023-05-10T00:43:10;10.23;;;7.05;;
9563;SDS011;4820;50.870;4.702;2023-05-10T00:45:37;9.52;;;6.90;;
9563;SDS011;4820;50.870;4.702;2023-05-10T00:48:07;11.35;;;7.47;;
9563;SDS011;4820;50.870;4.702;2023-05-10T00:50:33;8.23;;;6.53;;
9563;SDS011;4820;50.870;4.702;2023-05-10T00:53:00;10.73;;;7.45;;
9563;SDS011;4820;50.870;4.702;2023-05-10T00:55:27;12.75;;;7.88;;
9563;SDS011;4820;50.870;4.702;2023-05-10T00:57:53;9.02;;;7.38;;
9563;SDS011;4820;50.870;4.702;2023-05-10T01:00:18;9.45;;;7.35;;
9563;SDS011;4820;50.870;4.702;2023-05-10T01:02:45;8.93;;;7.25;;
9563;SDS011;4820;50.870;4.702;2023-05-10T01:05:11;12.13;;;7.15;;
9563;SDS011;4820;50.870;4.702;2023-05-10T01:07:37;11.18;;;8.15;;
9563;SDS011;4820;50.870;4.702;2023-05-10T01:10:04;11.55;;;7.47;;
9563;SDS011;4820;50.870;4.702;2023-05-10T01:12:32;8.50;;;7.00;;
9563;SDS011;4820;50.870;4.702;2023-05-10T01:15:03;10.38;;;7.45;;
9563;SDS011;4820;50.870;4.702;2023-05-10T01:17:30;14.90;;;8.38;;
9563;SDS011;4820;50.870;4.702;2023-05-10T01:19:57;11.95;;;8.15;;
9563;SDS011;4820;50.870;4.702;2023-05-10T01:22:38;12.60;;;8.20;;
9563;SDS011;4820;50.870;4.702;2023-05-10T01:49:54;12.25;;;9.43;;
9563;SDS011;4820;50.870;4.702;2023-05-10T01:52:32;14.15;;;9.40;;
9563;SDS011;4820;50.870;4.702;2023-05-10T01:55:01;15.15;;;9.30;;
9563;SDS011;4820;50.870;4.702;2023-05-10T01:57:34;12.85;;;9.32;;
9563;SDS011;4820;50.870;4.702;2023-05-10T02:00:03;13.00;;;9.82;;
9563;SDS011;4820;50.870;4.702;2023-05-10T02:02:30;12.55;;;9.65;;
9563;SDS011;4820;50.870;4.702;2023-05-10T02:05:02;11.40;;;9.38;;
9563;SDS011;4820;50.870;4.702;2023-05-10T02:07:30;11.38;;;10.15;;
9563;SDS011;4820;50.870;4.702;2023-05-10T02:09:59;11.77;;;9.75;;
9563;SDS011;4820;50.870;4.702;2023-05-10T02:12:26;13.95;;;9.77;;
9563;SDS011;4820;50.870;4.702;2023-05-10T02:14:53;14.18;;;10.40;;
9563;SDS011;4820;50.870;4.702;2023-05-10T02:17:21;15.15;;;10.50;;
9563;SDS011;4820;50.870;4.702;2023-05-10T02:19:48;14.50;;;10.75;;
9563;SDS011;4820;50.870;4.702;2023-05-10T02:22:16;12.02;;;10.00;;
9563;SDS011;4820;50.870;4.702;2023-05-10T02:24:43;13.05;;;10.55;;
9563;SDS011;4820;50.870;4.702;2023-05-10T02:27:10;14.40;;;10.73;;
9563;SDS011;4820;50.870;4.702;2023-05-10T02:29:37;14.48;;;10.45;;
9563;SDS011;4820;50.870;4.702;2023-05-10T02:32:03;13.73;;;10.27;;
9563;SDS011;4820;50.870;4.702;2023-05-10T02:34:30;16.52;;;10.95;;
9563;SDS011;4820;50.870;4.702;2023-05-10T02:36:58;14.65;;;10.70;;
9563;SDS011;4820;50.870;4.702;2023-05-10T02:39:27;12.73;;;10.98;;
9563;SDS011;4820;50.870;4.702;2023-05-10T02:41:54;16.05;;;11.07;;
9563;SDS011;4820;50.870;4.702;2023-05-10T02:44:21;12.50;;;10.95;;
9563;SDS011;4820;50.870;4.702;2023-05-10T02:46:48;14.00;;;10.32;;
9563;SDS011;4820;50.870;4.702;2023-05-10T02:49:15;13.38;;;10.40;;
9563;SDS011;4820;50.870;4.702;2023-05-10T02:51:42;12.90;;;10.35;;
9563;SDS011;4820;50.870;4.702;2023-05-10T02:54:15;15.02;;;11.05;;
9563;SDS011;4820;50.870;4.702;2023-05-10T02:56:53;12.10;;;10.65;;
9563;SDS011;4820;50.870;4.702;2023-05-10T02:59:23;12.00;;;10.57;;
9563;SDS011;4820;50.870;4.702;2023-05-10T03:01:48;11.38;;;9.80;;
9563;SDS011;4820;50.870;4.702;2023-05-10T03:04:14;13.15;;;10.45;;
9563;SDS011;4820;50.870;4.702;2023-05-10T03:06:40;12.73;;;11.00;;
9563;SDS011;4820;50.870;4.702;2023-05-10T03:09:06;11.10;;;9.52;;
9563;SDS011;4820;50.870;4.702;2023-05-10T03:11:55;13.80;;;10.98;;
9563;SDS011;4820;50.870;4.702;2023-05-10T03:20:08;12.27;;;10.27;;
9563;SDS011;4820;50.870;4.702;2023-05-10T03:23:20;12.82;;;10.57;;
9563;SDS011;4820;50.870;4.702;2023-05-10T03:25:29;11.35;;;9.95;;
9563;SDS011;4820;50.870;4.702;2023-05-10T03:27:56;14.27;;;10.32;;
9563;SDS011;4820;50.870;4.702;2023-05-10T03:30:23;11.18;;;9.82;;
9563;SDS011;4820;50.870;4.702;2023-05-10T03:32:50;13.65;;;9.52;;
9563;SDS011;4820;50.870;4.702;2023-05-10T03:35:15;12.15;;;9.85;;
9563;SDS011;4820;50.870;4.702;2023-05-10T03:37:41;11.00;;;8.90;;
9563;SDS011;4820;50.870;4.702;2023-05-10T03:40:07;14.45;;;9.35;;
9563;SDS011;4820;50.870;4.702;2023-05-10T03:42:33;13.40;;;9.57;;
9563;SDS011;4820;50.870;4.702;2023-05-10T03:44:59;13.82;;;9.50;;
9563;SDS011;4820;50.870;4.702;2023-05-10T03:47:25;10.60;;;8.85;;
9563;SDS011;4820;50.870;4.702;2023-05-10T03:49:51;14.05;;;9.73;;
9563;SDS011;4820;50.870;4.702;2023-05-10T03:52:16;12.70;;;9.60;;
9563;SDS011;4820;50.870;4.702;2023-05-10T03:54:43;13.25;;;9.60;;
9563;SDS011;4820;50.870;4.702;2023-05-10T03:57:09;10.90;;;9.68;;
9563;SDS011;4820;50.870;4.702;2023-05-10T03:59:34;12.15;;;9.75;;
9563;SDS011;4820;50.870;4.702;2023-05-10T04:02:00;13.20;;;10.05;;
9563;SDS011;4820;50.870;4.702;2023-05-10T04:04:26;12.65;;;10.00;;
9563;SDS011;4820;50.870;4.702;2023-05-10T04:06:52;12.95;;;10.63;;
9563;SDS011;4820;50.870;4.702;2023-05-10T04:09:17;15.27;;;10.95;;
9563;SDS011;4820;50.870;4.702;2023-05-10T04:11:43;14.15;;;11.05;;
9563;SDS011;4820;50.870;4.702;2023-05-10T04:14:09;15.65;;;11.43;;
9563;SDS011;4820;50.870;4.702;2023-05-10T04:16:36;17.95;;;13.05;;
9563;SDS011;4820;50.870;4.702;2023-05-10T04:19:01;16.00;;;13.50;;
9563;SDS011;4820;50.870;4.702;2023-05-10T04:21:27;17.75;;;13.27;;
9563;SDS011;4820;50.870;4.702;2023-05-10T04:23:53;18.50;;;14.40;;
9563;SDS011;4820;50.870;4.702;2023-05-10T04:26:18;18.48;;;14.45;;
9563;SDS011;4820;50.870;4.702;2023-05-10T04:28:45;20.13;;;14.27;;
9563;SDS011;4820;50.870;4.702;2023-05-10T04:31:11;18.83;;;14.90;;
9563;SDS011;4820;50.870;4.702;2023-05-10T04:33:37;17.95;;;14.43;;
9563;SDS011;4820;50.870;4.702;2023-05-10T04:36:03;21.42;;;15.45;;
9563;SDS011;4820;50.870;4.702;2023-05-10T04:38:29;19.67;;;14.95;;
9563;SDS011;4820;50.870;4.702;2023-05-10T04:41:06;20.77;;;15.70;;
9563;SDS011;4820;50.870;4.702;2023-05-10T04:43:32;19.88;;;15.00;;
9563;SDS011;4820;50.870;4.702;2023-05-10T04:45:58;19.20;;;14.95;;
9563;SDS011;4820;50.870;4.702;2023-05-10T04:48:24;19.25;;;15.00;;
9563;SDS011;4820;50.870;4.702;2023-05-10T04:50:50;22.15;;;16.02;;
9563;SDS011;4820;50.870;4.702;2023-05-10T04:53:16;21.15;;;16.73;;
9563;SDS011;4820;50.870;4.702;2023-05-10T04:55:41;21.45;;;15.90;;
9563;SDS011;4820;50.870;4.702;2023-05-10T04:58:08;19.40;;;15.07;;
9563;SDS011;4820;50.870;4.702;2023-05-10T05:00:34;20.55;;;16.58;;
9563;SDS011;4820;50.870;4.702;2023-05-10T05:03:00;22.08;;;18.30;;
9563;SDS011;4820;50.870;4.702;2023-05-10T05:05:26;21.75;;;17.83;;
9563;SDS011;4820;50.870;4.702;2023-05-10T05:07:51;20.13;;;17.40;;
9563;SDS011;4820;50.870;4.702;2023-05-10T05:10:17;24.10;;;17.42;;
9563;SDS011;4820;50.870;4.702;2023-05-10T05:12:43;22.27;;;17.15;;
9563;SDS011;4820;50.870;4.702;2023-05-10T05:15:09;20.17;;;16.40;;
9563;SDS011;4820;50.870;4.702;2023-05-10T05:17:36;22.25;;;17.77;;
9563;SDS011;4820;50.870;4.702;2023-05-10T05:20:02;21.98;;;17.20;;
9563;SDS011;4820;50.870;4.702;2023-05-10T05:22:28;19.23;;;16.77;;
9563;SDS011;4820;50.870;4.702;2023-05-10T05:24:55;21.73;;;16.95;;
9563;SDS011;4820;50.870;4.702;2023-05-10T05:27:22;20.40;;;17.38;;
9563;SDS011;4820;50.870;4.702;2023-05-10T05:29:52;21.30;;;17.52;;
9563;SDS011;4820;50.870;4.702;2023-05-10T05:32:19;22.92;;;17.63;;
9563;SDS011;4820;50.870;4.702;2023-05-10T05:34:45;24.38;;;18.52;;
9563;SDS011;4820;50.870;4.702;2023-05-10T05:37:14;21.33;;;18.17;;
9563;SDS011;4820;50.870;4.702;2023-05-10T05:39:41;21.83;;;18.13;;
9563;SDS011;4820;50.870;4.702;2023-05-10T05:42:07;24.10;;;19.58;;
9563;SDS011;4820;50.870;4.702;2023-05-10T05:44:36;25.20;;;18.45;;
9563;SDS011;4820;50.870;4.702;2023-05-10T05:47:02;23.77;;;18.95;;
9563;SDS011;4820;50.870;4.702;2023-05-10T05:49:28;19.98;;;17.02;;
9563;SDS011;4820;50.870;4.702;2023-05-10T05:51:58;24.05;;;19.27;;
9563;SDS011;4820;50.870;4.702;2023-05-10T05:54:27;21.77;;;17.83;;
9563;SDS011;4820;50.870;4.702;2023-05-10T05:56:53;21.98;;;17.90;;
9563;SDS011;4820;50.870;4.702;2023-05-10T05:59:20;21.00;;;17.58;;
9563;SDS011;4820;50.870;4.702;2023-05-10T06:01:47;20.83;;;17.67;;
9563;SDS011;4820;50.870;4.702;2023-05-10T06:04:12;22.92;;;17.92;;
9563;SDS011;4820;50.870;4.702;2023-05-10T06:06:38;20.33;;;16.38;;
9563;SDS011;4820;50.870;4.702;2023-05-10T06:09:04;20.90;;;16.67;;
9563;SDS011;4820;50.870;4.702;2023-05-10T06:11:32;19.50;;;16.90;;
9563;SDS011;4820;50.870;4.702;2023-05-10T06:13:58;19.27;;;16.65;;
9563;SDS011;4820;50.870;4.702;2023-05-10T06:16:24;19.98;;;17.70;;
9563;SDS011;4820;50.870;4.702;2023-05-10T06:18:50;22.90;;;18.15;;
9563;SDS011;4820;50.870;4.702;2023-05-10T06:21:16;25.25;;;18.85;;
9563;SDS011;4820;50.870;4.702;2023-05-10T06:23:42;23.38;;;18.58;;
9563;SDS011;4820;50.870;4.702;2023-05-10T06:26:07;23.10;;;18.23;;
9563;SDS011;4820;50.870;4.702;2023-05-10T06:28:33;22.25;;;19.33;;
9563;SDS011;4820;50.870;4.702;2023-05-10T06:31:00;21.35;;;17.50;;
9563;SDS011;4820;50.870;4.702;2023-05-10T06:33:26;23.65;;;18.13;;
9563;SDS011;4820;50.870;4.702;2023-05-10T06:35:52;23.23;;;17.90;;
9563;SDS011;4820;50.870;4.702;2023-05-10T06:38:18;20.88;;;17.60;;
9563;SDS011;4820;50.870;4.702;2023-05-10T06:40:44;22.52;;;17.85;;
9563;SDS011;4820;50.870;4.702;2023-05-10T06:43:09;22.85;;;17.38;;
9563;SDS011;4820;50.870;4.702;2023-05-10T06:45:35;20.20;;;16.92;;
9563;SDS011;4820;50.870;4.702;2023-05-10T06:48:01;20.73;;;16.33;;
9563;SDS011;4820;50.870;4.702;2023-05-10T06:50:27;18.30;;;14.30;;
9563;SDS011;4820;50.870;4.702;2023-05-10T06:52:53;17.52;;;13.27;;
9563;SDS011;4820;50.870;4.702;2023-05-10T06:55:20;13.48;;;11.60;;
9563;SDS011;4820;50.870;4.702;2023-05-10T06:57:46;10.77;;;9.68;;
9563;SDS011;4820;50.870;4.702;2023-05-10T07:00:13;10.02;;;7.88;;
9563;SDS011;4820;50.870;4.702;2023-05-10T07:02:39;11.13;;;7.97;;
9563;SDS011;4820;50.870;4.702;2023-05-10T07:05:05;6.75;;;6.05;;
9563;SDS011;4820;50.870;4.702;2023-05-10T07:07:31;7.57;;;5.38;;
9563;SDS011;4820;50.870;4.702;2023-05-10T07:09:57;6.03;;;4.57;;
9563;SDS011;4820;50.870;4.702;2023-05-10T07:12:23;6.18;;;4.35;;
9563;SDS011;4820;50.870;4.702;2023-05-10T07:14:50;5.70;;;5.20;;
9563;SDS011;4820;50.870;4.702;2023-05-10T07:17:16;8.07;;;5.60;;
9563;SDS011;4820;50.870;4.702;2023-05-10T07:19:42;8.23;;;5.15;;
9563;SDS011;4820;50.870;4.702;2023-05-10T07:22:08;7.32;;;5.32;;
9563;SDS011;4820;50.870;4.702;2023-05-10T07:24:34;7.35;;;5.30;;
9563;SDS011;4820;50.870;4.702;2023-05-10T07:27:00;6.72;;;5.50;;
9563;SDS011;4820;50.870;4.702;2023-05-10T07:29:26;5.80;;;5.20;;
9563;SDS011;4820;50.870;4.702;2023-05-10T07:31:52;7.03;;;5.35;;
9563;SDS011;4820;50.870;4.702;2023-05-10T07:34:18;5.40;;;4.80;;
9563;SDS011;4820;50.870;4.702;2023-05-10T07:36:44;6.30;;;4.13;;
9563;SDS011;4820;50.870;4.702;2023-05-10T07:39:10;4.90;;;3.70;;
9563;SDS011;4820;50.870;4.702;2023-05-10T07:41:35;4.38;;;3.40;;
9563;SDS011;4820;50.870;4.702;2023-05-10T07:44:02;4.10;;;3.70;;
9563;SDS011;4820;50.870;4.702;2023-05-10T07:46:29;4.68;;;3.80;;
9563;SDS011;4820;50.870;4.702;2023-05-10T07:48:54;3.53;;;3.22;;
9563;SDS011;4820;50.870;4.702;2023-05-10T07:51:20;4.32;;;3.53;;
9563;SDS011;4820;50.870;4.702;2023-05-10T07:53:46;4.68;;;3.40;;
9563;SDS011;4820;50.870;4.702;2023-05-10T07:56:28;4.85;;;3.85;;
9563;SDS011;4820;50.870;4.702;2023-05-10T07:58:57;4.97;;;4.28;;
9563;SDS011;4820;50.870;4.702;2023-05-10T08:01:23;5.85;;;4.65;;
9563;SDS011;4820;50.870;4.702;2023-05-10T08:03:49;5.97;;;4.90;;
9563;SDS011;4820;50.870;4.702;2023-05-10T08:06:19;6.80;;;5.70;;
9563;SDS011;4820;50.870;4.702;2023-05-10T08:08:46;8.07;;;5.68;;
9563;SDS011;4820;50.870;4.702;2023-05-10T08:11:15;6.68;;;5.80;;
9563;SDS011;4820;50.870;4.702;2023-05-10T08:13:41;8.93;;;7.32;;
9563;SDS011;4820;50.870;4.702;2023-05-10T08:16:07;11.63;;;7.55;;
9563;SDS011;4820;50.870;4.702;2023-05-10T08:18:33;10.68;;;7.68;;
9563;SDS011;4820;50.870;4.702;2023-05-10T08:20:58;10.20;;;8.45;;
9563;SDS011;4820;50.870;4.702;2023-05-10T08:23:24;12.52;;;8.52;;
9563;SDS011;4820;50.870;4.702;2023-05-10T08:25:50;14.25;;;8.55;;
9563;SDS011;4820;50.870;4.702;2023-05-10T08:28:15;11.13;;;8.63;;
9563;SDS011;4820;50.870;4.702;2023-05-10T08:30:44;9.77;;;8.18;;
9563;SDS011;4820;50.870;4.702;2023-05-10T08:33:09;9.90;;;7.97;;
9563;SDS011;4820;50.870;4.702;2023-05-10T08:35:35;13.30;;;8.48;;
9563;SDS011;4820;50.870;4.702;2023-05-10T08:38:01;12.80;;;8.40;;
9563;SDS011;4820;50.870;4.702;2023-05-10T08:40:27;9.77;;;7.93;;
9563;SDS011;4820;50.870;4.702;2023-05-10T08:43:03;14.48;;;8.40;;
9563;SDS011;4820;50.870;4.702;2023-05-10T08:45:32;10.52;;;7.95;;
9563;SDS011;4820;50.870;4.702;2023-05-10T08:48:07;10.50;;;7.82;;
9563;SDS011;4820;50.870;4.702;2023-05-10T08:50:38;11.93;;;8.05;;
9563;SDS011;4820;50.870;4.702;2023-05-10T08:53:08;11.05;;;7.97;;
9563;SDS011;4820;50.870;4.702;2023-05-10T08:55:37;10.73;;;7.70;;
9563;SDS011;4820;50.870;4.702;2023-05-10T08:58:06;12.27;;;7.93;;
9563;SDS011;4820;50.870;4.702;2023-05-10T09:00:33;10.35;;;7.13;;
9563;SDS011;4820;50.870;4.702;2023-05-10T09:03:00;8.73;;;7.20;;
9563;SDS011;4820;50.870;4.702;2023-05-10T09:05:26;10.73;;;6.95;;
9563;SDS011;4820;50.870;4.702;2023-05-10T09:07:53;8.43;;;6.55;;
9563;SDS011;4820;50.870;4.702;2023-05-10T09:10:19;8.27;;;6.32;;
9563;SDS011;4820;50.870;4.702;2023-05-10T09:12:45;8.70;;;6.88;;
9563;SDS011;4820;50.870;4.702;2023-05-10T09:15:11;10.40;;;6.78;;
9563;SDS011;4820;50.870;4.702;2023-05-10T09:17:40;7.88;;;6.40;;
9563;SDS011;4820;50.870;4.702;2023-05-10T09:20:07;7.63;;;6.47;;
9563;SDS011;4820;50.870;4.702;2023-05-10T09:22:33;7.57;;;5.85;;
9563;SDS011;4820;50.870;4.702;2023-05-10T09:25:06;8.80;;;5.97;;
9563;SDS011;4820;50.870;4.702;2023-05-10T09:27:34;5.97;;;5.35;;
9563;SDS011;4820;50.870;4.702;2023-05-10T09:30:01;6.07;;;5.35;;
9563;SDS011;4820;50.870;4.702;2023-05-10T09:32:37;6.75;;;5.53;;
9563;SDS011;4820;50.870;4.702;2023-05-10T09:35:11;7.00;;;5.50;;
9563;SDS011;4820;50.870;4.702;2023-05-10T09:37:41;7.57;;;5.18;;
9563;SDS011;4820;50.870;4.702;2023-05-10T09:40:12;7.15;;;4.53;;
9563;SDS011;4820;50.870;4.702;2023-05-10T09:42:50;8.20;;;4.85;;
9563;SDS011;4820;50.870;4.702;2023-05-10T09:45:20;5.95;;;4.80;;
9563;SDS011;4820;50.870;4.702;2023-05-10T09:47:51;5.18;;;4.13;;
9563;SDS011;4820;50.870;4.702;2023-05-10T09:50:17;4.75;;;3.95;;
9563;SDS011;4820;50.870;4.702;2023-05-10T09:55:26;4.55;;;3.17;;
9563;SDS011;4820;50.870;4.702;2023-05-10T09:58:07;3.63;;;3.30;;
9563;SDS011;4820;50.870;4.702;2023-05-10T10:00:42;3.30;;;2.90;;
9563;SDS011;4820;50.870;4.702;2023-05-10T10:03:13;3.90;;;2.78;;
9563;SDS011;4820;50.870;4.702;2023-05-10T10:05:40;3.05;;;2.70;;
9563;SDS011;4820;50.870;4.702;2023-05-10T10:08:10;2.90;;;2.60;;
9563;SDS011;4820;50.870;4.702;2023-05-10T10:10:37;3.00;;;2.53;;
9563;SDS011;4820;50.870;4.702;2023-05-10T10:13:06;3.00;;;2.70;;
9563;SDS011;4820;50.870;4.702;2023-05-10T10:15:33;3.20;;;2.90;;
9563;SDS011;4820;50.870;4.702;2023-05-10T10:17:59;2.70;;;2.45;;
9563;SDS011;4820;50.870;4.702;2023-05-10T10:20:26;3.85;;;2.50;;
9563;SDS011;4820;50.870;4.702;2023-05-10T10:22:53;3.15;;;2.85;;
9563;SDS011;4820;50.870;4.702;2023-05-10T10:25:19;3.25;;;2.85;;
9563;SDS011;4820;50.870;4.702;2023-05-10T10:35:52;3.30;;;2.83;;
9563;SDS011;4820;50.870;4.702;2023-05-10T10:38:19;3.20;;;2.88;;
9563;SDS011;4820;50.870;4.702;2023-05-10T10:40:46;3.50;;;2.97;;
9563;SDS011;4820;50.870;4.702;2023-05-10T10:43:22;3.50;;;2.47;;
9563;SDS011;4820;50.870;4.702;2023-05-10T10:48:41;2.88;;;2.50;;
9563;SDS011;4820;50.870;4.702;2023-05-10T10:51:16;3.28;;;2.60;;
9563;SDS011;4820;50.870;4.702;2023-05-10T10:53:42;2.35;;;2.15;;
9563;SDS011;4820;50.870;4.702;2023-05-10T10:56:09;2.90;;;1.92;;
9563;SDS011;4820;50.870;4.702;2023-05-10T10:58:38;2.63;;;2.20;;
9563;SDS011;4820;50.870;4.702;2023-05-10T11:01:23;2.95;;;2.10;;
9563;SDS011;4820;50.870;4.702;2023-05-10T11:06:32;1.83;;;1.73;;
9563;SDS011;4820;50.870;4.702;2023-05-10T11:09:00;1.98;;;1.77;;
9563;SDS011;4820;50.870;4.702;2023-05-10T11:11:34;1.77;;;1.67;;
9563;SDS011;4820;50.870;4.702;2023-05-10T11:14:07;1.92;;;1.60;;
9563;SDS011;4820;50.870;4.702;2023-05-10T11:16:42;3.08;;;1.58;;
9563;SDS011;4820;50.870;4.702;2023-05-10T11:19:13;2.17;;;1.45;;
9563;SDS011;4820;50.870;4.702;2023-05-10T11:21:47;1.50;;;1.40;;
9563;SDS011;4820;50.870;4.702;2023-05-10T11:24:14;1.88;;;1.40;;
9563;SDS011;4820;50.870;4.702;2023-05-10T11:26:46;1.92;;;1.50;;
9563;SDS011;4820;50.870;4.702;2023-05-10T11:29:15;1.83;;;1.30;;
9563;SDS011;4820;50.870;4.702;2023-05-10T11:31:44;1.20;;;1.10;;
9563;SDS011;4820;50.870;4.702;2023-05-10T11:34:12;1.30;;;1.20;;
9563;SDS011;4820;50.870;4.702;2023-05-10T11:37:00;1.45;;;1.35;;
9563;SDS011;4820;50.870;4.702;2023-05-10T11:39:30;2.47;;;1.38;;
9563;SDS011;4820;50.870;4.702;2023-05-10T11:41:57;1.42;;;1.30;;
9563;SDS011;4820;50.870;4.702;2023-05-10T11:44:30;1.90;;;1.52;;
9563;SDS011;4820;50.870;4.702;2023-05-10T11:47:01;1.52;;;1.42;;
9563;SDS011;4820;50.870;4.702;2023-05-10T11:49:28;1.52;;;1.25;;
9563;SDS011;4820;50.870;4.702;2023-05-10T11:52:03;1.52;;;1.42;;
9563;SDS011;4820;50.870;4.702;2023-05-10T11:54:30;2.08;;;1.60;;
9563;SDS011;4820;50.870;4.702;2023-05-10T11:56:56;2.00;;;1.80;;
9563;SDS011;4820;50.870;4.702;2023-05-10T11:59:22;1.98;;;1.88;;
9563;SDS011;4820;50.870;4.702;2023-05-10T12:01:47;1.80;;;1.70;;
9563;SDS011;4820;50.870;4.702;2023-05-10T12:04:13;1.92;;;1.80;;
9563;SDS011;4820;50.870;4.702;2023-05-10T12:06:41;1.83;;;1.73;;
9563;SDS011;4820;50.870;4.702;2023-05-10T12:09:07;2.30;;;1.90;;
9563;SDS011;4820;50.870;4.702;2023-05-10T12:11:36;2.58;;;2.10;;
9563;SDS011;4820;50.870;4.702;2023-05-10T12:14:04;2.05;;;1.85;;
9563;SDS011;4820;50.870;4.702;2023-05-10T12:16:30;2.38;;;2.10;;
9563;SDS011;4820;50.870;4.702;2023-05-10T12:18:59;2.40;;;2.08;;
9563;SDS011;4820;50.870;4.702;2023-05-10T12:21:27;2.95;;;2.35;;
9563;SDS011;4820;50.870;4.702;2023-05-10T12:23:54;2.58;;;2.38;;
9563;SDS011;4820;50.870;4.702;2023-05-10T12:26:24;2.55;;;2.20;;
9563;SDS011;4820;50.870;4.702;2023-05-10T12:28:52;3.17;;;2.40;;
9563;SDS011;4820;50.870;4.702;2023-05-10T12:31:18;2.65;;;2.17;;
9563;SDS011;4820;50.870;4.702;2023-05-10T12:33:44;2.60;;;2.13;;
9563;SDS011;4820;50.870;4.702;2023-05-10T12:36:14;3.47;;;2.35;;
9563;SDS011;4820;50.870;4.702;2023-05-10T12:41:16;2.58;;;2.38;;
9563;SDS011;4820;50.870;4.702;2023-05-10T12:43:42;2.50;;;2.10;;
9563;SDS011;4820;50.870;4.702;2023-05-10T12:48:37;2.75;;;2.30;;
9563;SDS011;4820;50.870;4.702;2023-05-10T12:51:04;2.28;;;2.05;;
9563;SDS011;4820;50.870;4.702;2023-05-10T12:53:34;3.00;;;2.15;;
9563;SDS011;4820;50.870;4.702;2023-05-10T12:56:01;2.47;;;2.28;;
9563;SDS011;4820;50.870;4.702;2023-05-10T12:58:26;2.13;;;1.92;;
9563;SDS011;4820;50.870;4.702;2023-05-10T13:00:52;3.20;;;2.13;;
9563;SDS011;4820;50.870;4.702;2023-05-10T13:03:19;2.42;;;2.08;;
9563;SDS011;4820;50.870;4.702;2023-05-10T13:05:45;2.15;;;1.95;;
9563;SDS011;4820;50.870;4.702;2023-05-10T13:08:10;2.80;;;1.80;;
9563;SDS011;4820;50.870;4.702;2023-05-10T13:10:36;2.15;;;1.95;;
9563;SDS011;4820;50.870;4.702;2023-05-10T13:13:02;2.67;;;1.70;;
9563;SDS011;4820;50.870;4.702;2023-05-10T13:15:28;2.35;;;1.90;;
9563;SDS011;4820;50.870;4.702;2023-05-10T13:17:53;2.58;;;2.17;;
9563;SDS011;4820;50.870;4.702;2023-05-10T13:20:19;2.20;;;2.00;;
9563;SDS011;4820;50.870;4.702;2023-05-10T13:22:45;2.95;;;2.20;;
9563;SDS011;4820;50.870;4.702;2023-05-10T13:25:11;2.22;;;2.03;;
9563;SDS011;4820;50.870;4.702;2023-05-10T13:27:41;2.38;;;1.80;;
9563;SDS011;4820;50.870;4.702;2023-05-10T13:30:07;2.63;;;2.20;;
9563;SDS011;4820;50.870;4.702;2023-05-10T13:32:33;3.03;;;2.33;;
9563;SDS011;4820;50.870;4.702;2023-05-10T13:34:59;1.95;;;1.80;;
9563;SDS011;4820;50.870;4.702;2023-05-10T13:37:25;2.90;;;2.00;;
9563;SDS011;4820;50.870;4.702;2023-05-10T13:39:51;2.22;;;1.73;;
9563;SDS011;4820;50.870;4.702;2023-05-10T13:42:17;2.22;;;1.92;;
9563;SDS011;4820;50.870;4.702;2023-05-10T13:44:43;2.42;;;2.03;;
9563;SDS011;4820;50.870;4.702;2023-05-10T13:47:09;2.40;;;2.20;;
9563;SDS011;4820;50.870;4.702;2023-05-10T13:49:35;3.90;;;2.50;;
9563;SDS011;4820;50.870;4.702;2023-05-10T13:52:01;2.70;;;2.47;;
9563;SDS011;4820;50.870;4.702;2023-05-10T13:54:35;1.90;;;1.80;;
9563;SDS011;4820;50.870;4.702;2023-05-10T13:57:04;2.30;;;2.10;;
9563;SDS011;4820;50.870;4.702;2023-05-10T13:59:30;2.80;;;2.60;;
9563;SDS011;4820;50.870;4.702;2023-05-10T14:01:59;2.50;;;2.28;;
9563;SDS011;4820;50.870;4.702;2023-05-10T14:04:27;3.00;;;2.08;;
9563;SDS011;4820;50.870;4.702;2023-05-10T14:06:53;2.38;;;2.17;;
9563;SDS011;4820;50.870;4.702;2023-05-10T14:09:19;2.45;;;2.25;;
9563;SDS011;4820;50.870;4.702;2023-05-10T14:11:45;2.67;;;2.22;;
9563;SDS011;4820;50.870;4.702;2023-05-10T14:14:11;2.35;;;2.10;;
9563;SDS011;4820;50.870;4.702;2023-05-10T14:16:41;2.33;;;2.10;;
9563;SDS011;4820;50.870;4.702;2023-05-10T14:19:07;2.67;;;2.25;;
9563;SDS011;4820;50.870;4.702;2023-05-10T14:21:33;2.50;;;2.30;;
9563;SDS011;4820;50.870;4.702;2023-05-10T14:23:59;3.00;;;2.78;;
9563;SDS011;4820;50.870;4.702;2023-05-10T14:26:25;2.90;;;2.67;;
9563;SDS011;4820;50.870;4.702;2023-05-10T14:28:52;2.92;;;2.63;;
9563;SDS011;4820;50.870;4.702;2023-05-10T14:31:18;2.40;;;2.20;;
9563;SDS011;4820;50.870;4.702;2023-05-10T14:33:46;2.78;;;2.58;;
9563;SDS011;4820;50.870;4.702;2023-05-10T14:36:12;3.28;;;2.72;;
9563;SDS011;4820;50.870;4.702;2023-05-10T14:38:38;2.65;;;2.45;;
9563;SDS011;4820;50.870;4.702;2023-05-10T14:41:05;3.13;;;2.83;;
9563;SDS011;4820;50.870;4.702;2023-05-10T14:43:31;3.33;;;2.95;;
9563;SDS011;4820;50.870;4.702;2023-05-10T14:45:56;3.67;;;2.95;;
9563;SDS011;4820;50.870;4.702;2023-05-10T14:48:22;3.95;;;2.78;;
9563;SDS011;4820;50.870;4.702;2023-05-10T14:50:48;3.38;;;3.10;;
9563;SDS011;4820;50.870;4.702;2023-05-10T14:53:15;4.15;;;3.08;;
9563;SDS011;4820;50.870;4.702;2023-05-10T14:55:41;3.45;;;2.90;;
9563;SDS011;4820;50.870;4.702;2023-05-10T14:58:06;3.13;;;2.83;;
9563;SDS011;4820;50.870;4.702;2023-05-10T15:00:32;5.97;;;3.15;;
9563;SDS011;4820;50.870;4.702;2023-05-10T15:02:58;5.15;;;3.03;;
9563;SDS011;4820;50.870;4.702;2023-05-10T15:05:23;3.63;;;3.08;;
9563;SDS011;4820;50.870;4.702;2023-05-10T15:07:49;4.28;;;3.10;;
9563;SDS011;4820;50.870;4.702;2023-05-10T15:10:15;3.10;;;2.80;;
9563;SDS011;4820;50.870;4.702;2023-05-10T15:12:41;2.95;;;2.65;;
9563;SDS011;4820;50.870;4.702;2023-05-10T15:15:07;3.03;;;2.72;;
9563;SDS011;4820;50.870;4.702;2023-05-10T15:17:33;4.10;;;3.10;;
9563;SDS011;4820;50.870;4.702;2023-05-10T15:19:59;4.72;;;3.50;;
9563;SDS011;4820;50.870;4.702;2023-05-10T15:22:27;5.03;;;3.42;;
9563;SDS011;4820;50.870;4.702;2023-05-10T15:24:53;5.53;;;3.70;;
9563;SDS011;4820;50.870;4.702;2023-05-10T15:27:19;5.70;;;5.20;;
9563;SDS011;4820;50.870;4.702;2023-05-10T15:29:45;6.63;;;5.50;;
9563;SDS011;4820;50.870;4.702;2023-05-10T15:32:11;5.60;;;4.95;;
9563;SDS011;4820;50.870;4.702;2023-05-10T15:34:37;6.05;;;5.20;;
9563;SDS011;4820;50.870;4.702;2023-05-10T15:37:02;5.97;;;5.38;;
9563;SDS011;4820;50.870;4.702;2023-05-10T15:39:28;6.00;;;5.40;;
9563;SDS011;4820;50.870;4.702;2023-05-10T15:41:54;6.40;;;5.80;;
9563;SDS011;4820;50.870;4.702;2023-05-10T15:44:19;7.03;;;6.20;;
9563;SDS011;4820;50.870;4.702;2023-05-10T15:46:45;7.78;;;7.03;;
9563;SDS011;4820;50.870;4.702;2023-05-10T15:49:11;10.52;;;8.15;;
9563;SDS011;4820;50.870;4.702;2023-05-10T15:51:38;7.53;;;6.35;;
9563;SDS011;4820;50.870;4.702;2023-05-10T15:54:05;8.98;;;6.50;;
9563;SDS011;4820;50.870;4.702;2023-05-10T15:56:31;6.97;;;6.10;;
9563;SDS011;4820;50.870;4.702;2023-05-10T15:58:58;7.22;;;5.60;;